WetterOnline ( https://www.wetteronline.de )

Wetter aktuell Saarbrücken

Aktuelles Wetter: Berus (367m)

6-stündlich | Neueste Meldungen
Ortszeit Temperatur Wetter
Do, 23.05. 8:00 12.0° C wolkig
Do, 23.05. 2:00 10.6° C wolkenlos
Mi, 22.05. 20:00 14.5° C bedeckt
Mi, 22.05. 14:00 14.0° C bedeckt
Mi, 22.05. 8:00 11.7° C bedeckt
Mi, 22.05. 2:00 11.5° C leicht bewölkt
Di, 21.05. 20:00 14.7° C wolkig
Di, 21.05. 14:00 13.4° C leichter Regen
Ortszeit Temperatur Wetter
Do, 23.05. 8:00 12.0° C wolkig
Do, 23.05. 7:40 11.7° C leicht bewölkt
Do, 23.05. 7:30 11.6° C leicht bewölkt
Do, 23.05. 7:20 11.6° C leicht bewölkt
Do, 23.05. 7:10 11.5° C leicht bewölkt
Do, 23.05. 7:00 10.8° C leicht bewölkt
Do, 23.05. 6:50 10.8° C leicht bewölkt
Do, 23.05. 6:30 10.0° C bewölkt
Do, 23.05. 6:00 9.4° C leicht bewölkt
Do, 23.05. 5:30 9.5° C wolkenlos
Do, 23.05. 5:00 9.7° C wolkenlos
Ortszeit Relative Feuchte Sichtweite
Do, 23.05. 8:00 89% 30 km
Do, 23.05. 2:00 96% 23 km
Mi, 22.05. 20:00 75% 65 km
Mi, 22.05. 14:00 81% 45 km
Mi, 22.05. 8:00 99% 7 km
Mi, 22.05. 2:00 98% 14 km
Di, 21.05. 20:00 92% 30 km
Di, 21.05. 14:00 95% 16 km
Ortszeit Relative Feuchte Sichtweite
Do, 23.05. 8:00 89% 30 km
Do, 23.05. 7:40 89% -
Do, 23.05. 7:30 91% 27 km
Do, 23.05. 7:20 91% -
Do, 23.05. 7:10 92% -
Do, 23.05. 7:00 96% 22 km
Do, 23.05. 6:50 96% -
Do, 23.05. 6:30 99% 18 km
Do, 23.05. 6:00 98% 13 km
Do, 23.05. 5:30 97% 11 km
Do, 23.05. 5:00 97% 15 km
Ortszeit Niederschlagsmenge Niederschlagsart
Do, 23.05. 8:00 0.0 l/m2 in 12 Std. -
Do, 23.05. 2:00 0.0 l/m2 in 6 Std. -
Mi, 22.05. 20:00 0.1 l/m2 in 12 Std. Regen
Mi, 22.05. 14:00 0.1 l/m2 in 6 Std. Regen
Mi, 22.05. 8:00 0.3 l/m2 in 12 Std. -
Mi, 22.05. 2:00 0.3 l/m2 in 6 Std. Regen
Di, 21.05. 20:00 9 l/m2 in 12 Std. Regen
Di, 21.05. 14:00 7 l/m2 in 6 Std. Regen
Ortszeit Niederschlagsmenge Niederschlagsart
Do, 23.05. 8:00 0.0 l/m2 in 1 Std. -
Do, 23.05. 7:40 keine Meldung -
Do, 23.05. 7:30 0.0 l/m2 in 30 Min -
Do, 23.05. 7:20 keine Meldung -
Do, 23.05. 7:10 keine Meldung -
Do, 23.05. 7:00 0.0 l/m2 in 1 Std. -
Do, 23.05. 6:50 keine Meldung -
Do, 23.05. 6:30 0.0 l/m2 in 30 Min -
Do, 23.05. 6:00 0.0 l/m2 in 1 Std. -
Do, 23.05. 5:30 0.0 l/m2 in 30 Min -
Do, 23.05. 5:00 0.0 l/m2 in 1 Std. -
Ortszeit Stärke Spitze Richtung
km/h Bft. km/h Grad Sektor
Do, 23.05. 8:00 9 2 17 250° W
Do, 23.05. 2:00 11 2 22 250° W
Mi, 22.05. 20:00 14 3 32 250° W
Mi, 22.05. 14:00 20 4 35 270° W
Mi, 22.05. 8:00 13 3 33 240° SW
Mi, 22.05. 2:00 14 3 29 230° SW
Di, 21.05. 20:00 4 1 25 250° W
Di, 21.05. 14:00 11 2 32 260° W
Ortszeit Stärke Spitze Richtung
km/h Bft. km/h Grad Sektor
Do, 23.05. 8:00 9 2 17 250° W
Do, 23.05. 7:40 9 2 - 250° W
Do, 23.05. 7:30 9 2 17 260° W
Do, 23.05. 7:20 9 2 - 260° W
Do, 23.05. 7:10 11 2 - 260° W
Do, 23.05. 7:00 9 2 13 270° W
Do, 23.05. 6:50 9 2 - 270° W
Do, 23.05. 6:30 9 2 11 250° W
Do, 23.05. 6:00 7 2 11 240° SW
Do, 23.05. 5:30 7 2 9 240° SW
Do, 23.05. 5:00 7 2 11 250° W
Ortszeit Untergrenze Bedeckung Gattung
total tief tief mittel hoch
Do, 23.05. 8:00 1800 m 6/8 2/8 - - -
Do, 23.05. 2:00 - 0/8 0/8 - - -
Mi, 22.05. 20:00 1200 m 8/8 8/8 - - -
Mi, 22.05. 14:00 600 m 8/8 8/8 - - -
Mi, 22.05. 8:00 120 m 8/8 8/8 - - -
Mi, 22.05. 2:00 7200 m 6/8 0/8 - - -
Di, 21.05. 20:00 2100 m 7/8 1/8 - - -
Di, 21.05. 14:00 210 m 8/8 8/8 - - -
Ortszeit Bedeckungsgrad in Achtel und Wolkenuntergrenze
Do, 23.05. 8:00 2(1800m) 6(7800m)
Do, 23.05. 7:40 3
Do, 23.05. 7:30 1(1500m) 4(1800m)
Do, 23.05. 7:20 1(1500m) 4(1800m)
Do, 23.05. 7:10 4
Do, 23.05. 7:00 3(1800m) 4(7800m)
Do, 23.05. 6:50 3(1800m) 4(7800m)
Do, 23.05. 6:30 7(1800m)
Do, 23.05. 6:00 4(1800m)
Do, 23.05. 5:30 keine Wolken
Do, 23.05. 5:00 keine Wolken
Ortszeit Luftdruck NN (hPa) Tendenz (hPa in 3 Std.)
Do, 23.05. 8:00 1016 + 0,8
Do, 23.05. 2:00 1016 + 0,6
Mi, 22.05. 20:00 1013 - 0,1
Mi, 22.05. 14:00 1013 + 1,0
Mi, 22.05. 8:00 1010 + 1,3
Mi, 22.05. 2:00 1008 + 0,3
Di, 21.05. 20:00 1007 - 0,4
Di, 21.05. 14:00 1008 - 0,3
Ortszeit Luftdruck NN (hPa) Tendenz (hPa in 3 Std.)
Do, 23.05. 8:00 1016 + 0,8
Do, 23.05. 7:40 1016 keine Meldung
Do, 23.05. 7:30 1016 + 0,6
Do, 23.05. 7:20 1016 keine Meldung
Do, 23.05. 7:10 1016 keine Meldung
Do, 23.05. 7:00 1016 + 0,3
Do, 23.05. 6:50 1016 keine Meldung
Do, 23.05. 6:30 1016 + 0,5
Do, 23.05. 6:00 1016 + 0,2
Do, 23.05. 5:30 1016 + 0,2
Do, 23.05. 5:00 1016 - 0,1
Ortszeit Schneehöhe (cm)
Do, 23.05. 8:00 -
Do, 23.05. 2:00 0
Mi, 22.05. 20:00 0
Mi, 22.05. 14:00 0
Mi, 22.05. 8:00 0
Mi, 22.05. 2:00 0
Di, 21.05. 20:00 0
Di, 21.05. 14:00 0
Ortszeit Schneehöhe (cm)
Do, 23.05. 8:00 -
Do, 23.05. 7:40 -
Do, 23.05. 7:30 5
Do, 23.05. 7:20 5
Do, 23.05. 7:10 -
Do, 23.05. 7:00 0
Do, 23.05. 6:50 0
Do, 23.05. 6:30 0
Do, 23.05. 6:00 0
Do, 23.05. 5:30 0
Do, 23.05. 5:00 0
Link zu dieser Seite / Seite empfehlen

Das Wetter in ...